createdAt,value
2018-12-31T00:00:08.792Z,5.90
2018-12-31T00:02:41.237Z,5.47
2018-12-31T00:05:10.532Z,4.50
2018-12-31T00:07:39.805Z,4.77
2018-12-31T00:10:09.097Z,5.10
2018-12-31T00:12:38.450Z,4.20
2018-12-31T00:15:07.704Z,4.60
2018-12-31T00:17:36.972Z,4.70
2018-12-31T00:20:06.303Z,4.40
2018-12-31T00:22:35.585Z,4.50
2018-12-31T00:25:04.904Z,4.25
2018-12-31T00:27:34.203Z,3.77
2018-12-31T00:30:03.542Z,3.50
2018-12-31T00:32:32.831Z,4.23
2018-12-31T00:35:02.158Z,3.50
2018-12-31T00:37:31.466Z,3.27
2018-12-31T00:40:02.436Z,3.70
2018-12-31T00:42:31.928Z,3.53
2018-12-31T00:45:01.201Z,3.67
2018-12-31T00:47:30.474Z,3.70
2018-12-31T00:49:59.790Z,3.50
2018-12-31T00:52:29.083Z,3.77
2018-12-31T00:54:58.366Z,3.60
2018-12-31T00:57:27.661Z,3.70
2018-12-31T00:59:56.966Z,4.30
2018-12-31T01:02:26.260Z,4.00
2018-12-31T01:04:55.886Z,3.87
2018-12-31T01:07:25.211Z,3.70
2018-12-31T01:09:55.466Z,4.40
2018-12-31T01:12:24.942Z,4.23
2018-12-31T01:14:54.321Z,4.10
2018-12-31T01:17:24.882Z,4.30
2018-12-31T01:19:54.216Z,3.90
2018-12-31T01:22:24.558Z,4.17
2018-12-31T01:24:54.390Z,3.77
2018-12-31T01:27:32.377Z,4.27
2018-12-31T01:30:01.710Z,3.93
2018-12-31T01:32:35.371Z,3.80
2018-12-31T01:35:04.859Z,4.00
2018-12-31T01:37:35.412Z,4.63
2018-12-31T01:40:10.565Z,4.50
2018-12-31T01:42:36.919Z,4.37
2018-12-31T01:45:06.279Z,5.47
2018-12-31T01:47:35.555Z,4.17
2018-12-31T01:50:05.181Z,5.43
2018-12-31T01:52:34.433Z,4.37
2018-12-31T01:55:03.748Z,4.67
2018-12-31T01:57:33.036Z,4.10
2018-12-31T02:00:02.383Z,4.37
2018-12-31T02:02:31.694Z,4.03
2018-12-31T02:05:00.946Z,3.87
2018-12-31T02:07:30.239Z,4.20
2018-12-31T02:09:59.505Z,4.17
2018-12-31T02:12:28.843Z,4.30
2018-12-31T02:14:58.147Z,4.80
2018-12-31T02:17:27.403Z,4.53
2018-12-31T02:19:56.685Z,4.43
2018-12-31T02:22:25.926Z,4.57
2018-12-31T02:24:55.208Z,4.17
2018-12-31T02:27:24.475Z,4.60
2018-12-31T02:29:53.758Z,4.30
2018-12-31T02:32:23.032Z,4.23
2018-12-31T02:34:52.303Z,4.90
2018-12-31T02:37:21.647Z,4.27
2018-12-31T02:39:51.179Z,4.27
2018-12-31T02:42:20.425Z,4.43
2018-12-31T02:44:49.655Z,4.67
2018-12-31T02:47:18.931Z,4.23
2018-12-31T02:49:48.167Z,3.80
2018-12-31T02:52:17.444Z,4.90
2018-12-31T02:54:46.846Z,4.60
2018-12-31T02:57:16.110Z,4.90
2018-12-31T02:59:45.362Z,5.20
2018-12-31T03:02:14.827Z,5.20
2018-12-31T03:04:44.086Z,4.33
2018-12-31T03:07:13.919Z,4.90
2018-12-31T03:09:43.530Z,4.20
2018-12-31T03:12:12.849Z,5.15
2018-12-31T03:14:42.107Z,4.33
2018-12-31T03:17:11.361Z,4.57
2018-12-31T03:19:40.603Z,4.20
2018-12-31T03:22:09.842Z,4.30
2018-12-31T03:24:39.081Z,3.43
2018-12-31T03:27:08.340Z,3.40
2018-12-31T03:29:37.594Z,2.90
2018-12-31T03:32:06.830Z,2.60
2018-12-31T03:34:36.075Z,2.67
2018-12-31T03:37:05.578Z,2.70
2018-12-31T03:39:34.832Z,2.73
2018-12-31T03:42:04.088Z,2.60
2018-12-31T03:44:33.366Z,2.30
2018-12-31T03:47:02.618Z,2.50
2018-12-31T03:49:31.878Z,2.30
2018-12-31T03:52:01.213Z,2.70
2018-12-31T03:54:30.454Z,3.07
2018-12-31T03:56:59.756Z,2.60
2018-12-31T03:59:28.998Z,2.60
2018-12-31T04:01:58.251Z,2.80
2018-12-31T04:04:27.467Z,2.50
2018-12-31T04:06:57.113Z,2.70
2018-12-31T04:09:26.326Z,2.53
2018-12-31T04:11:55.593Z,2.70
2018-12-31T04:14:24.889Z,3.00
2018-12-31T04:16:54.162Z,2.90
2018-12-31T04:19:23.423Z,3.00
2018-12-31T04:21:52.694Z,3.40
2018-12-31T04:24:21.954Z,3.53
2018-12-31T04:26:51.217Z,4.50
2018-12-31T04:29:20.477Z,4.10
2018-12-31T04:31:49.759Z,4.37
2018-12-31T04:34:19.002Z,5.33
2018-12-31T04:36:48.258Z,5.33
2018-12-31T04:39:17.500Z,5.33
2018-12-31T04:41:46.730Z,5.20
2018-12-31T04:44:15.994Z,5.27
2018-12-31T04:46:45.233Z,5.17
2018-12-31T04:49:14.447Z,5.50
2018-12-31T04:51:43.697Z,5.33
2018-12-31T04:54:12.882Z,5.13
2018-12-31T04:56:42.156Z,5.23
2018-12-31T04:59:11.422Z,5.80
2018-12-31T05:01:41.106Z,5.87
2018-12-31T05:04:10.380Z,5.30
2018-12-31T05:06:39.627Z,5.30
2018-12-31T05:09:08.907Z,4.77
2018-12-31T05:11:38.149Z,5.73
2018-12-31T05:14:07.388Z,5.73
2018-12-31T05:16:36.854Z,5.33
2018-12-31T05:19:06.129Z,5.93
2018-12-31T05:21:35.411Z,6.00
2018-12-31T05:24:04.675Z,6.57
2018-12-31T05:26:34.213Z,5.97
2018-12-31T05:29:03.489Z,7.10
2018-12-31T05:31:32.730Z,6.97
2018-12-31T05:34:02.019Z,7.07
2018-12-31T05:36:31.265Z,7.73
2018-12-31T05:39:00.521Z,7.37
2018-12-31T05:41:29.771Z,6.73
2018-12-31T05:43:59.051Z,7.20
2018-12-31T05:46:28.317Z,7.43
2018-12-31T05:48:57.647Z,7.40
2018-12-31T05:51:27.912Z,7.67
2018-12-31T05:53:57.143Z,7.10
2018-12-31T05:56:26.403Z,7.50
2018-12-31T05:58:55.720Z,7.77
2018-12-31T06:01:24.951Z,7.20
2018-12-31T06:03:54.223Z,8.30
2018-12-31T06:06:23.402Z,7.87
2018-12-31T06:08:52.658Z,7.77
2018-12-31T06:11:21.906Z,7.23
2018-12-31T06:13:51.170Z,8.07
2018-12-31T06:16:20.438Z,8.33
2018-12-31T06:18:49.846Z,8.63
2018-12-31T06:21:19.101Z,8.70
2018-12-31T06:23:48.396Z,8.33
2018-12-31T06:26:18.098Z,8.60
2018-12-31T06:28:47.389Z,8.67
2018-12-31T06:31:16.646Z,8.57
2018-12-31T06:33:45.947Z,8.97
2018-12-31T06:36:15.187Z,8.70
2018-12-31T06:38:44.440Z,8.93
2018-12-31T06:41:13.690Z,8.30
2018-12-31T06:43:42.934Z,8.47
2018-12-31T06:46:12.166Z,8.37
2018-12-31T06:48:41.448Z,9.23
2018-12-31T06:51:10.741Z,9.67
2018-12-31T06:53:40.033Z,8.43
2018-12-31T06:56:09.606Z,7.80
2018-12-31T06:58:38.943Z,7.87
2018-12-31T07:01:08.560Z,9.67
2018-12-31T07:03:37.909Z,7.60
2018-12-31T07:06:07.203Z,8.17
2018-12-31T07:08:36.454Z,8.37
2018-12-31T07:11:05.793Z,8.97
2018-12-31T07:13:35.067Z,9.87
2018-12-31T07:16:04.555Z,10.87
2018-12-31T07:18:33.819Z,10.00
2018-12-31T07:21:03.103Z,9.47
2018-12-31T07:23:32.409Z,10.07
2018-12-31T07:26:01.652Z,9.40
2018-12-31T07:28:30.927Z,10.57
2018-12-31T07:31:00.216Z,10.43
2018-12-31T07:33:30.415Z,11.37
2018-12-31T07:35:59.733Z,11.33
2018-12-31T07:38:28.994Z,13.47
2018-12-31T07:40:58.265Z,11.33
2018-12-31T07:43:27.501Z,11.80
2018-12-31T07:45:57.030Z,16.03
2018-12-31T07:48:26.336Z,22.27
2018-12-31T07:50:57.541Z,20.57
2018-12-31T07:53:27.109Z,18.93
2018-12-31T07:55:56.512Z,12.97
2018-12-31T07:58:25.873Z,16.80
2018-12-31T08:00:55.206Z,13.73
2018-12-31T08:03:24.447Z,17.33
2018-12-31T08:05:53.945Z,19.07
2018-12-31T08:08:23.181Z,19.13
2018-12-31T08:10:52.433Z,18.07
2018-12-31T08:13:21.731Z,21.57
2018-12-31T08:15:50.981Z,23.00
2018-12-31T08:18:20.241Z,21.37
2018-12-31T08:20:49.693Z,24.43
2018-12-31T08:23:18.927Z,29.40
2018-12-31T08:25:48.199Z,23.90
2018-12-31T08:28:17.523Z,25.77
2018-12-31T08:30:46.782Z,24.23
2018-12-31T08:33:16.042Z,25.30
2018-12-31T08:35:45.337Z,25.27
2018-12-31T08:38:14.631Z,23.83
2018-12-31T08:40:44.290Z,24.50
2018-12-31T08:43:13.542Z,26.37
2018-12-31T08:45:42.823Z,28.63
2018-12-31T08:48:12.103Z,26.43
2018-12-31T08:50:41.328Z,27.27
2018-12-31T08:53:10.661Z,33.08
2018-12-31T08:55:39.894Z,33.43
2018-12-31T08:58:09.176Z,25.83
2018-12-31T09:00:38.419Z,24.07
2018-12-31T09:03:07.721Z,25.67
2018-12-31T09:05:37.000Z,30.30
2018-12-31T09:08:06.282Z,31.00
2018-12-31T09:10:35.547Z,31.20
2018-12-31T09:13:05.167Z,34.07
2018-12-31T09:15:34.447Z,34.00
2018-12-31T09:18:03.729Z,33.97
2018-12-31T09:20:33.083Z,35.53
2018-12-31T09:23:02.342Z,32.83
2018-12-31T09:25:31.616Z,34.10
2018-12-31T09:28:00.881Z,33.87
2018-12-31T09:30:30.154Z,32.57
2018-12-31T09:32:59.398Z,37.93
2018-12-31T09:35:28.665Z,36.30
2018-12-31T09:37:58.047Z,34.13
2018-12-31T09:40:27.319Z,32.17
2018-12-31T09:42:56.579Z,32.20
2018-12-31T09:45:25.870Z,33.13
2018-12-31T09:47:55.187Z,34.07
2018-12-31T09:50:24.441Z,30.40
2018-12-31T09:52:53.723Z,38.23
2018-12-31T09:55:23.015Z,35.20
2018-12-31T09:57:52.282Z,33.40
2018-12-31T10:00:21.567Z,34.20
2018-12-31T10:02:50.821Z,34.80
2018-12-31T10:05:20.098Z,33.83
2018-12-31T10:07:49.374Z,39.87
2018-12-31T10:10:18.696Z,34.40
2018-12-31T10:12:47.987Z,33.20
2018-12-31T10:15:17.325Z,38.30
2018-12-31T10:17:46.666Z,39.77
2018-12-31T10:20:15.960Z,37.37
2018-12-31T10:22:45.251Z,34.07
2018-12-31T10:25:14.535Z,30.80
2018-12-31T10:27:43.830Z,33.53
2018-12-31T10:30:13.101Z,36.40
2018-12-31T10:32:42.414Z,31.83
2018-12-31T10:35:11.670Z,31.63
2018-12-31T10:37:40.930Z,36.90
2018-12-31T10:40:10.475Z,41.30
2018-12-31T10:42:39.819Z,34.47
2018-12-31T10:45:09.073Z,37.17
2018-12-31T10:47:38.370Z,35.13
2018-12-31T10:50:07.738Z,38.37
2018-12-31T10:52:37.003Z,39.17
2018-12-31T10:55:06.559Z,39.27
2018-12-31T10:57:35.881Z,38.40
2018-12-31T11:00:05.366Z,39.93
2018-12-31T11:02:34.650Z,39.70
2018-12-31T11:05:03.966Z,36.07
2018-12-31T11:07:33.241Z,39.10
2018-12-31T11:10:02.555Z,38.17
2018-12-31T11:12:31.907Z,40.70
2018-12-31T11:15:01.446Z,41.87
2018-12-31T11:17:30.784Z,40.90
2018-12-31T11:20:00.234Z,37.37
2018-12-31T11:22:29.598Z,38.13
2018-12-31T11:24:58.855Z,32.57
2018-12-31T11:27:28.495Z,36.97
2018-12-31T11:29:57.781Z,37.97
2018-12-31T11:32:27.053Z,34.47
2018-12-31T11:34:56.359Z,38.20
2018-12-31T11:37:26.017Z,36.43
2018-12-31T11:39:55.335Z,36.83
2018-12-31T11:42:24.612Z,37.27
2018-12-31T11:44:54.047Z,40.95
2018-12-31T11:47:23.390Z,38.13
2018-12-31T11:49:52.707Z,40.63
2018-12-31T11:52:22.006Z,35.17
2018-12-31T11:54:51.299Z,37.90
2018-12-31T11:57:20.625Z,35.93
2018-12-31T11:59:51.584Z,42.23
2018-12-31T12:02:23.648Z,40.03
2018-12-31T12:04:51.972Z,39.70
2018-12-31T12:07:21.410Z,40.43
2018-12-31T12:09:50.724Z,38.80
2018-12-31T12:12:20.398Z,39.83
2018-12-31T12:14:49.714Z,40.77
2018-12-31T12:17:19.026Z,38.13
2018-12-31T12:19:48.298Z,37.23
2018-12-31T12:22:17.568Z,35.57
2018-12-31T12:24:47.513Z,37.07
2018-12-31T12:27:16.789Z,37.63
2018-12-31T12:29:46.103Z,38.53
2018-12-31T12:32:15.834Z,35.23
2018-12-31T12:34:45.145Z,39.10
2018-12-31T12:37:14.524Z,40.57
2018-12-31T12:39:44.155Z,39.63
2018-12-31T12:42:13.435Z,37.43
2018-12-31T12:44:42.733Z,38.93
2018-12-31T12:47:12.029Z,36.57
2018-12-31T12:49:41.304Z,40.97
2018-12-31T12:52:10.587Z,40.47
2018-12-31T12:54:39.882Z,39.23
2018-12-31T12:57:09.190Z,41.93
2018-12-31T12:59:38.479Z,40.77
2018-12-31T13:02:07.787Z,40.67
2018-12-31T13:04:37.050Z,38.13
2018-12-31T13:07:06.316Z,40.33
2018-12-31T13:09:38.446Z,45.70
2018-12-31T13:12:08.057Z,41.07
2018-12-31T13:14:37.348Z,40.93
2018-12-31T13:17:06.643Z,39.07
2018-12-31T13:19:36.029Z,43.97
2018-12-31T13:22:05.371Z,45.13
2018-12-31T13:24:35.016Z,43.77
2018-12-31T13:27:04.425Z,39.57
2018-12-31T13:29:33.727Z,41.43
2018-12-31T13:32:03.095Z,39.10
2018-12-31T13:34:32.430Z,45.07
2018-12-31T13:37:01.743Z,42.60
2018-12-31T13:39:30.994Z,39.73
2018-12-31T13:42:00.334Z,41.07
2018-12-31T13:44:29.652Z,40.10
2018-12-31T13:46:58.906Z,42.17
2018-12-31T13:49:28.230Z,39.77
2018-12-31T13:51:57.523Z,37.90
2018-12-31T13:54:26.837Z,36.43
2018-12-31T13:56:56.203Z,42.17
2018-12-31T13:59:25.533Z,37.07
2018-12-31T14:01:54.831Z,43.40
2018-12-31T14:04:24.120Z,39.60
2018-12-31T14:06:53.460Z,40.17
2018-12-31T14:09:22.826Z,41.07
2018-12-31T14:11:52.127Z,40.47
2018-12-31T14:14:21.435Z,39.07
2018-12-31T14:16:50.907Z,40.43
2018-12-31T14:19:20.216Z,41.03
2018-12-31T14:21:49.490Z,36.50
2018-12-31T14:24:19.387Z,39.93
2018-12-31T14:26:48.850Z,35.90
2018-12-31T14:29:18.230Z,39.17
2018-12-31T14:31:47.654Z,38.33
2018-12-31T14:34:17.272Z,36.60
2018-12-31T14:36:46.825Z,38.63
2018-12-31T14:39:16.128Z,34.73
2018-12-31T14:41:45.471Z,32.77
2018-12-31T14:44:14.782Z,38.37
2018-12-31T14:46:44.136Z,39.80
2018-12-31T14:49:13.446Z,39.03
2018-12-31T14:51:42.788Z,43.17
2018-12-31T14:54:12.118Z,38.93
2018-12-31T14:56:41.491Z,40.13
2018-12-31T14:59:10.775Z,34.57
2018-12-31T15:01:40.470Z,37.50
2018-12-31T15:04:09.792Z,37.97
2018-12-31T15:06:39.059Z,39.80
2018-12-31T15:09:08.400Z,42.40
2018-12-31T15:11:37.698Z,38.50
2018-12-31T15:14:07.066Z,35.77
2018-12-31T15:16:36.444Z,38.13
2018-12-31T15:19:05.874Z,39.07
2018-12-31T15:21:35.132Z,36.10
2018-12-31T15:24:04.449Z,32.47
2018-12-31T15:26:33.822Z,38.93
2018-12-31T15:29:03.178Z,38.67
2018-12-31T15:31:32.525Z,37.77
2018-12-31T15:34:01.852Z,41.43
2018-12-31T15:36:31.220Z,35.60
2018-12-31T15:39:00.603Z,35.10
2018-12-31T15:41:29.906Z,35.93
2018-12-31T15:43:59.178Z,39.13
2018-12-31T15:46:28.776Z,41.17
2018-12-31T15:48:58.452Z,41.53
2018-12-31T15:51:27.718Z,40.93
2018-12-31T15:53:57.049Z,39.10
2018-12-31T15:56:27.502Z,38.53
2018-12-31T15:58:56.901Z,39.43
2018-12-31T16:01:27.030Z,41.60
2018-12-31T16:03:56.378Z,47.47
2018-12-31T16:06:25.737Z,40.97
2018-12-31T16:08:55.063Z,37.97
2018-12-31T16:11:24.350Z,39.40
2018-12-31T16:13:53.971Z,42.20
2018-12-31T16:16:23.276Z,46.50
2018-12-31T16:18:52.538Z,45.53
2018-12-31T16:21:21.854Z,41.23
2018-12-31T16:23:51.179Z,43.03
2018-12-31T16:26:20.739Z,43.10
2018-12-31T16:28:50.026Z,47.37
2018-12-31T16:31:19.387Z,43.67
2018-12-31T16:33:48.712Z,41.87
2018-12-31T16:36:18.098Z,43.87
2018-12-31T16:38:47.425Z,43.33
2018-12-31T16:41:16.735Z,45.63
2018-12-31T16:43:46.123Z,41.53
2018-12-31T16:46:15.528Z,39.40
2018-12-31T16:48:44.891Z,46.77
2018-12-31T16:51:14.142Z,42.80
2018-12-31T16:53:43.463Z,44.40
2018-12-31T16:56:12.801Z,46.30
2018-12-31T16:58:42.079Z,48.37
2018-12-31T17:01:11.383Z,39.83
2018-12-31T17:03:40.672Z,39.33
2018-12-31T17:06:09.948Z,45.47
2018-12-31T17:08:39.263Z,40.70
2018-12-31T17:11:08.878Z,45.87
2018-12-31T17:13:38.190Z,38.57
2018-12-31T17:16:07.635Z,40.93
2018-12-31T17:18:37.021Z,40.27
2018-12-31T17:21:06.321Z,41.70
2018-12-31T17:23:35.610Z,38.93
2018-12-31T17:26:04.950Z,36.87
2018-12-31T17:28:34.253Z,37.87
2018-12-31T17:31:03.670Z,39.53
2018-12-31T17:33:33.175Z,37.27
2018-12-31T17:36:02.465Z,40.53
2018-12-31T17:38:31.781Z,37.67
2018-12-31T17:41:01.071Z,38.93
2018-12-31T17:43:30.335Z,38.80
2018-12-31T17:45:59.646Z,36.23
2018-12-31T17:48:29.014Z,37.63
2018-12-31T17:50:58.295Z,34.40
2018-12-31T17:53:27.566Z,40.53
2018-12-31T17:55:56.953Z,35.87
2018-12-31T17:58:26.230Z,36.10
2018-12-31T18:00:55.514Z,34.23
2018-12-31T18:03:24.763Z,36.37
2018-12-31T18:05:54.029Z,37.27
2018-12-31T18:08:23.307Z,34.57
2018-12-31T18:10:52.894Z,38.70
2018-12-31T18:13:22.184Z,38.53
2018-12-31T18:15:51.454Z,39.27
2018-12-31T18:18:20.759Z,39.93
2018-12-31T18:20:50.021Z,38.80
2018-12-31T18:23:19.293Z,42.83
2018-12-31T18:25:48.560Z,37.13
2018-12-31T18:28:17.888Z,44.77
2018-12-31T18:30:47.121Z,46.80
2018-12-31T18:33:16.414Z,41.50
2018-12-31T18:35:45.689Z,39.27
2018-12-31T18:38:14.940Z,43.03
2018-12-31T18:40:44.197Z,45.37
2018-12-31T18:43:13.459Z,47.43
2018-12-31T18:45:42.712Z,49.23
2018-12-31T18:48:12.491Z,46.67
2018-12-31T18:50:41.869Z,47.43
2018-12-31T18:53:11.106Z,45.30
2018-12-31T18:55:40.365Z,49.10
2018-12-31T18:58:09.658Z,41.77
2018-12-31T19:00:38.996Z,47.37
2018-12-31T19:03:08.221Z,45.80
2018-12-31T19:05:37.517Z,46.77
2018-12-31T19:08:06.830Z,52.87
2018-12-31T19:10:36.137Z,44.97
2018-12-31T19:13:05.706Z,46.67
2018-12-31T19:15:34.976Z,44.47
2018-12-31T19:18:04.260Z,51.90
2018-12-31T19:20:33.890Z,60.43
2018-12-31T19:23:03.159Z,61.33
2018-12-31T19:25:32.455Z,54.40
2018-12-31T19:28:01.760Z,47.33
2018-12-31T19:30:31.004Z,58.37
2018-12-31T19:33:00.306Z,53.77
2018-12-31T19:35:29.622Z,46.63
2018-12-31T19:37:58.950Z,45.80
2018-12-31T19:40:28.226Z,53.50
2018-12-31T19:42:57.504Z,48.60
2018-12-31T19:45:26.877Z,49.67
2018-12-31T19:47:56.174Z,51.00
2018-12-31T19:50:25.519Z,44.93
2018-12-31T19:52:54.773Z,53.63
2018-12-31T19:55:24.051Z,52.13
2018-12-31T19:57:53.655Z,51.33
2018-12-31T20:00:22.932Z,56.10
2018-12-31T20:02:52.234Z,55.90
2018-12-31T20:05:21.530Z,59.87
2018-12-31T20:07:50.850Z,55.83
2018-12-31T20:10:20.103Z,57.80
2018-12-31T20:12:49.401Z,54.10
2018-12-31T20:15:18.695Z,51.50
2018-12-31T20:17:49.447Z,52.53
2018-12-31T20:20:18.845Z,58.77
2018-12-31T20:22:48.091Z,62.93
2018-12-31T20:25:17.394Z,56.40
2018-12-31T20:27:47.098Z,55.87
2018-12-31T20:30:16.446Z,59.87
2018-12-31T20:32:45.787Z,57.50
2018-12-31T20:35:15.657Z,58.37
2018-12-31T20:37:45.017Z,49.17
2018-12-31T20:40:14.303Z,51.30
2018-12-31T20:42:43.609Z,50.60
2018-12-31T20:45:12.862Z,57.13
2018-12-31T20:47:42.170Z,52.27
2018-12-31T20:50:11.476Z,52.37
2018-12-31T20:52:40.730Z,47.30
2018-12-31T20:55:09.913Z,47.63
2018-12-31T20:57:39.253Z,47.67
2018-12-31T21:00:08.920Z,51.10
2018-12-31T21:02:38.500Z,46.17
2018-12-31T21:05:08.143Z,49.50
2018-12-31T21:07:37.520Z,45.67
2018-12-31T21:10:09.267Z,47.97
2018-12-31T21:12:40.192Z,49.60
2018-12-31T21:15:09.717Z,47.43
2018-12-31T21:17:39.007Z,48.10
2018-12-31T21:20:08.887Z,48.93
2018-12-31T21:22:38.198Z,49.97
2018-12-31T21:25:07.559Z,57.67
2018-12-31T21:27:36.751Z,71.70
2018-12-31T21:30:08.435Z,93.83
2018-12-31T21:32:37.696Z,100.10
2018-12-31T21:35:07.320Z,81.53
2018-12-31T21:37:36.938Z,72.43
2018-12-31T21:40:08.355Z,88.73
2018-12-31T21:42:37.627Z,85.87
2018-12-31T21:45:06.946Z,91.73
2018-12-31T21:47:37.938Z,75.73
2018-12-31T21:50:07.231Z,66.57
2018-12-31T21:52:36.514Z,71.83
2018-12-31T21:55:06.358Z,79.53
2018-12-31T21:57:35.640Z,60.37
2018-12-31T22:00:05.679Z,58.80
2018-12-31T22:02:34.958Z,63.37
2018-12-31T22:05:04.308Z,54.03
2018-12-31T22:07:33.610Z,50.23
2018-12-31T22:10:02.896Z,47.70
2018-12-31T22:12:32.206Z,52.13
2018-12-31T22:15:01.505Z,47.53
2018-12-31T22:17:30.779Z,49.03
2018-12-31T22:20:00.014Z,46.10
2018-12-31T22:22:29.301Z,48.57
2018-12-31T22:24:58.588Z,47.77
2018-12-31T22:27:27.884Z,50.07
2018-12-31T22:29:57.155Z,49.10
2018-12-31T22:32:26.415Z,45.97
2018-12-31T22:34:55.702Z,45.87
2018-12-31T22:37:25.015Z,43.87
2018-12-31T22:39:54.265Z,41.87
2018-12-31T22:42:23.565Z,42.97
2018-12-31T22:44:53.257Z,44.70
2018-12-31T22:47:22.513Z,42.03
2018-12-31T22:49:51.791Z,44.97
2018-12-31T22:52:21.078Z,39.57
2018-12-31T22:54:50.363Z,43.87
2018-12-31T22:57:19.666Z,41.30
2018-12-31T22:59:48.970Z,54.43
2018-12-31T23:02:18.230Z,60.10
2018-12-31T23:04:47.896Z,104.83
2018-12-31T23:07:17.260Z,120.40
2018-12-31T23:09:46.574Z,202.07
2018-12-31T23:12:16.201Z,264.97
2018-12-31T23:14:45.445Z,297.17
2018-12-31T23:17:16.900Z,270.52
2018-12-31T23:19:46.187Z,281.07
2018-12-31T23:22:15.475Z,285.30
2018-12-31T23:24:44.762Z,283.17
2018-12-31T23:27:14.065Z,331.30
2018-12-31T23:29:43.356Z,340.07
2018-12-31T23:32:12.672Z,320.97
2018-12-31T23:34:41.963Z,324.93
2018-12-31T23:37:11.313Z,329.30
2018-12-31T23:39:40.610Z,323.17
2018-12-31T23:42:09.909Z,334.00
2018-12-31T23:44:39.258Z,317.50
2018-12-31T23:47:08.579Z,270.43
2018-12-31T23:49:37.878Z,235.60
2018-12-31T23:52:07.154Z,224.07
2018-12-31T23:54:36.433Z,164.60
2018-12-31T23:57:05.728Z,150.57
2018-12-31T23:59:35.002Z,118.20
